createdAt,value
2018-08-17T00:01:26.079Z,2.60
2018-08-17T00:03:53.555Z,2.60
2018-08-17T00:06:20.748Z,2.30
2018-08-17T00:08:47.879Z,2.20
2018-08-17T00:11:14.986Z,2.30
2018-08-17T00:13:42.184Z,2.10
2018-08-17T00:16:09.294Z,2.20
2018-08-17T00:18:36.636Z,2.20
2018-08-17T00:21:03.967Z,2.63
2018-08-17T00:23:31.427Z,2.47
2018-08-17T00:25:58.538Z,2.67
2018-08-17T00:28:25.681Z,2.60
2018-08-17T00:30:53.027Z,3.10
2018-08-17T00:33:20.194Z,2.97
2018-08-17T00:35:47.320Z,2.73
2018-08-17T00:38:14.485Z,2.50
2018-08-17T00:40:41.606Z,2.30
2018-08-17T00:43:08.726Z,2.67
2018-08-17T00:45:35.851Z,2.80
2018-08-17T00:48:03.039Z,2.37
2018-08-17T00:50:30.401Z,2.70
2018-08-17T00:52:57.535Z,2.60
2018-08-17T00:55:24.683Z,2.80
2018-08-17T00:57:51.849Z,2.77
2018-08-17T01:00:18.978Z,3.20
2018-08-17T01:02:46.126Z,2.93
2018-08-17T01:05:13.260Z,2.63
2018-08-17T01:07:40.407Z,2.73
2018-08-17T01:10:07.544Z,2.60
2018-08-17T01:12:34.703Z,2.90
2018-08-17T01:15:01.863Z,2.60
2018-08-17T01:17:28.997Z,2.60
2018-08-17T01:19:56.146Z,2.50
2018-08-17T01:22:23.371Z,2.67
2018-08-17T01:24:50.683Z,2.60
2018-08-17T01:27:17.773Z,2.50
2018-08-17T01:29:44.871Z,2.50
2018-08-17T01:32:12.077Z,2.17
2018-08-17T01:34:39.108Z,2.20
2018-08-17T01:37:06.220Z,2.70
2018-08-17T01:39:33.338Z,2.00
2018-08-17T01:42:00.471Z,2.73
2018-08-17T01:44:27.595Z,2.27
2018-08-17T01:46:54.725Z,2.70
2018-08-17T01:49:21.928Z,2.87
2018-08-17T01:51:49.025Z,2.63
2018-08-17T01:54:16.129Z,2.70
2018-08-17T01:56:43.230Z,2.67
2018-08-17T01:59:10.370Z,2.57
2018-08-17T02:01:37.501Z,2.73
2018-08-17T02:04:04.659Z,2.93
2018-08-17T02:06:31.813Z,2.70
2018-08-17T02:08:58.970Z,3.00
2018-08-17T02:11:26.096Z,2.60
2018-08-17T02:13:53.307Z,2.30
2018-08-17T02:16:20.467Z,2.97
2018-08-17T02:18:47.671Z,2.57
2018-08-17T02:21:14.792Z,2.50
2018-08-17T02:23:41.922Z,2.70
2018-08-17T02:26:09.043Z,2.77
2018-08-17T02:28:36.158Z,2.60
2018-08-17T02:31:03.307Z,2.60
2018-08-17T02:33:30.798Z,3.13
2018-08-17T02:35:57.931Z,2.80
2018-08-17T02:38:25.091Z,3.50
2018-08-17T02:40:52.337Z,2.47
2018-08-17T02:43:19.473Z,3.10
2018-08-17T02:45:46.742Z,2.70
2018-08-17T02:48:13.850Z,2.70
2018-08-17T02:50:40.966Z,2.57
2018-08-17T02:53:08.393Z,2.80
2018-08-17T02:55:35.497Z,3.03
2018-08-17T02:58:02.626Z,2.43
2018-08-17T03:00:29.775Z,2.90
2018-08-17T03:02:56.907Z,2.63
2018-08-17T03:05:24.121Z,2.53
2018-08-17T03:07:51.246Z,3.10
2018-08-17T03:10:18.355Z,2.83
2018-08-17T03:12:45.494Z,2.93
2018-08-17T03:15:12.654Z,2.77
2018-08-17T03:17:39.765Z,2.80
2018-08-17T03:20:06.907Z,2.97
2018-08-17T03:22:34.036Z,2.67
2018-08-17T03:25:01.168Z,2.90
2018-08-17T03:27:28.314Z,2.70
2018-08-17T03:29:55.468Z,2.50
2018-08-17T03:32:22.623Z,2.67
2018-08-17T03:34:49.763Z,2.70
2018-08-17T03:37:16.991Z,2.87
2018-08-17T03:39:44.031Z,3.30
2018-08-17T03:42:11.122Z,2.90
2018-08-17T03:44:38.233Z,3.03
2018-08-17T03:47:05.406Z,2.80
2018-08-17T03:49:32.540Z,2.70
2018-08-17T03:51:59.713Z,3.37
2018-08-17T03:54:26.859Z,3.20
2018-08-17T03:56:53.990Z,3.00
2018-08-17T03:59:21.129Z,3.03
2018-08-17T04:01:48.225Z,2.93
2018-08-17T04:04:15.356Z,2.90
2018-08-17T04:06:42.687Z,3.47
2018-08-17T04:09:10.755Z,3.93
2018-08-17T04:11:37.902Z,3.40
2018-08-17T04:14:05.225Z,3.37
2018-08-17T04:16:32.616Z,3.43
2018-08-17T04:19:00.342Z,3.10
2018-08-17T04:21:29.258Z,3.57
2018-08-17T04:23:56.452Z,3.70
2018-08-17T04:26:23.574Z,3.77
2018-08-17T04:28:51.270Z,3.40
2018-08-17T04:31:18.390Z,3.33
2018-08-17T04:33:45.870Z,3.50
2018-08-17T04:36:12.969Z,3.60
2018-08-17T04:38:40.074Z,3.20
2018-08-17T04:41:07.205Z,4.27
2018-08-17T04:43:34.349Z,4.20
2018-08-17T04:46:01.489Z,4.67
2018-08-17T04:48:28.626Z,4.17
2018-08-17T04:50:55.790Z,4.23
2018-08-17T04:53:22.979Z,4.07
2018-08-17T04:55:50.102Z,4.70
2018-08-17T04:58:17.243Z,4.20
2018-08-17T05:00:44.366Z,3.67
2018-08-17T05:03:11.470Z,3.80
2018-08-17T05:05:38.602Z,3.97
2018-08-17T05:08:05.726Z,3.90
2018-08-17T05:10:32.870Z,4.23
2018-08-17T05:12:59.969Z,3.40
2018-08-17T05:15:27.110Z,3.73
2018-08-17T05:17:54.340Z,3.70
2018-08-17T05:20:21.537Z,3.87
2018-08-17T05:22:48.655Z,4.20
2018-08-17T05:25:16.035Z,3.80
2018-08-17T05:27:43.139Z,4.62
2018-08-17T05:30:10.266Z,4.50
2018-08-17T05:32:37.430Z,4.25
2018-08-17T05:35:04.798Z,5.08
2018-08-17T05:37:31.980Z,4.33
2018-08-17T05:39:59.115Z,4.60
2018-08-17T05:42:26.312Z,4.65
2018-08-17T05:44:53.580Z,4.58
2018-08-17T05:47:20.744Z,4.75
2018-08-17T05:49:47.931Z,3.85
2018-08-17T05:52:15.070Z,4.25
2018-08-17T05:54:42.223Z,4.83
2018-08-17T05:57:09.329Z,4.78
2018-08-17T05:59:36.438Z,4.50
2018-08-17T06:02:03.671Z,4.65
2018-08-17T06:04:30.884Z,4.60
2018-08-17T06:06:57.993Z,4.53
2018-08-17T06:09:25.190Z,4.85
2018-08-17T06:11:52.455Z,5.08
2018-08-17T06:14:19.566Z,5.10
2018-08-17T06:16:46.742Z,5.67
2018-08-17T06:19:13.884Z,6.17
2018-08-17T06:21:40.978Z,5.70
2018-08-17T06:24:08.107Z,6.03
2018-08-17T06:26:35.230Z,6.12
2018-08-17T06:29:02.382Z,6.50
2018-08-17T06:31:29.557Z,6.00
2018-08-17T06:33:56.694Z,5.78
2018-08-17T06:36:23.906Z,7.28
2018-08-17T06:38:51.099Z,7.15
2018-08-17T06:41:18.234Z,7.30
2018-08-17T06:43:45.388Z,7.28
2018-08-17T06:46:12.515Z,7.83
2018-08-17T06:48:39.663Z,8.25
2018-08-17T06:51:06.810Z,7.47
2018-08-17T06:53:33.918Z,8.68
2018-08-17T06:56:01.061Z,8.15
2018-08-17T06:58:28.222Z,8.53
2018-08-17T07:00:55.368Z,8.80
2018-08-17T07:03:22.565Z,8.68
2018-08-17T07:05:49.705Z,8.95
2018-08-17T07:08:16.898Z,9.08
2018-08-17T07:10:44.009Z,9.43
2018-08-17T07:13:11.106Z,10.30
2018-08-17T07:15:38.243Z,10.00
2018-08-17T07:18:05.384Z,10.60
2018-08-17T07:20:32.599Z,9.90
2018-08-17T07:22:59.714Z,9.55
2018-08-17T07:25:26.842Z,10.13
2018-08-17T07:27:54.101Z,10.78
2018-08-17T07:30:21.221Z,9.53
2018-08-17T07:32:48.357Z,11.68
2018-08-17T07:35:15.492Z,12.65
2018-08-17T07:37:42.622Z,12.93
2018-08-17T07:40:09.801Z,12.07
2018-08-17T07:42:36.951Z,12.45
2018-08-17T07:45:04.569Z,12.15
2018-08-17T07:47:31.685Z,11.93
2018-08-17T07:49:58.805Z,13.00
2018-08-17T07:52:26.075Z,13.00
2018-08-17T07:54:53.238Z,12.23
2018-08-17T07:57:20.391Z,13.70
2018-08-17T07:59:47.786Z,13.75
2018-08-17T08:02:14.922Z,13.43
2018-08-17T08:04:42.217Z,11.95
2018-08-17T08:07:09.474Z,14.50
2018-08-17T08:09:36.609Z,14.90
2018-08-17T08:12:03.753Z,15.98
2018-08-17T08:14:31.084Z,15.58
2018-08-17T08:16:58.250Z,15.68
2018-08-17T08:19:25.458Z,14.30
2018-08-17T08:21:52.769Z,14.87
2018-08-17T08:24:19.890Z,14.95
2018-08-17T08:26:47.406Z,13.25
2018-08-17T08:29:14.864Z,12.98
2018-08-17T08:31:42.139Z,14.40
2018-08-17T08:34:09.283Z,15.48
2018-08-17T08:36:36.441Z,15.00
2018-08-17T08:39:06.418Z,14.93
2018-08-17T08:41:33.548Z,13.62
2018-08-17T08:44:00.679Z,13.72
2018-08-17T08:46:27.857Z,13.75
2018-08-17T08:48:55.036Z,14.98
2018-08-17T08:51:22.340Z,14.68
2018-08-17T08:53:49.424Z,13.70
2018-08-17T08:56:16.555Z,13.38
2018-08-17T08:58:43.653Z,13.83
2018-08-17T09:01:10.758Z,12.82
2018-08-17T09:03:37.858Z,13.08
2018-08-17T09:06:04.989Z,12.82
2018-08-17T09:08:32.097Z,11.10
2018-08-17T09:10:59.219Z,11.50
2018-08-17T09:13:26.393Z,10.60
2018-08-17T09:15:53.556Z,10.20
2018-08-17T09:18:20.673Z,10.40
2018-08-17T09:20:48.074Z,10.80
2018-08-17T09:23:15.122Z,10.90
2018-08-17T09:25:42.241Z,9.68
2018-08-17T09:28:09.365Z,10.58
2018-08-17T09:30:36.494Z,11.35
2018-08-17T09:33:03.671Z,11.08
2018-08-17T09:35:30.792Z,10.45
2018-08-17T09:37:58.043Z,11.53
2018-08-17T09:40:25.271Z,10.82
2018-08-17T09:42:52.498Z,11.57
2018-08-17T09:45:19.639Z,11.38
2018-08-17T09:47:46.806Z,10.65
2018-08-17T09:50:14.756Z,10.80
2018-08-17T09:52:41.871Z,11.33
2018-08-17T09:55:09.025Z,9.28
2018-08-17T09:57:36.189Z,9.95
2018-08-17T10:00:04.705Z,10.00
2018-08-17T10:02:37.581Z,9.85
2018-08-17T10:05:10.658Z,10.28
2018-08-17T10:07:43.694Z,9.65
2018-08-17T10:10:18.922Z,9.05
2018-08-17T10:12:46.973Z,9.08
2018-08-17T10:15:14.118Z,8.98
2018-08-17T10:17:41.218Z,8.83
2018-08-17T10:20:13.577Z,9.13
2018-08-17T10:22:40.769Z,8.33
2018-08-17T10:25:13.623Z,8.18
2018-08-17T10:27:40.781Z,7.95
2018-08-17T10:30:07.944Z,9.48
2018-08-17T10:32:39.866Z,9.63
2018-08-17T10:35:09.969Z,8.20
2018-08-17T10:37:37.090Z,8.30
2018-08-17T10:40:04.349Z,8.08
2018-08-17T10:42:31.471Z,8.70
2018-08-17T10:44:58.693Z,8.70
2018-08-17T10:47:25.856Z,7.90
2018-08-17T10:49:53.050Z,8.18
2018-08-17T10:52:20.198Z,8.50
2018-08-17T10:54:47.302Z,7.03
2018-08-17T10:57:14.410Z,7.72
2018-08-17T10:59:41.526Z,7.65
2018-08-17T11:02:08.673Z,7.85
2018-08-17T11:04:35.784Z,8.05
2018-08-17T11:07:02.931Z,7.70
2018-08-17T11:09:30.058Z,7.53
2018-08-17T11:11:57.203Z,7.87
2018-08-17T11:14:24.332Z,7.78
2018-08-17T11:16:52.013Z,8.00
2018-08-17T11:19:19.121Z,7.50
2018-08-17T11:21:46.220Z,7.22
2018-08-17T11:24:13.346Z,7.25
2018-08-17T11:26:40.498Z,6.80
2018-08-17T11:29:07.642Z,7.20
2018-08-17T11:31:34.825Z,7.20
2018-08-17T11:34:01.949Z,6.75
2018-08-17T11:36:29.071Z,6.60
2018-08-17T11:38:56.405Z,7.83
2018-08-17T11:41:23.635Z,7.22
2018-08-17T11:43:50.794Z,7.78
2018-08-17T11:46:17.910Z,7.00
2018-08-17T11:48:45.078Z,6.95
2018-08-17T11:51:12.185Z,6.55
2018-08-17T11:53:39.351Z,6.58
2018-08-17T11:56:06.477Z,6.45
2018-08-17T11:58:33.585Z,6.95
2018-08-17T12:01:00.795Z,6.67
2018-08-17T12:03:28.250Z,6.47
2018-08-17T12:05:55.434Z,7.12
2018-08-17T12:08:22.696Z,6.60
2018-08-17T12:10:55.430Z,6.30
2018-08-17T12:13:22.595Z,7.58
2018-08-17T12:15:54.732Z,6.70
2018-08-17T12:18:21.934Z,7.08
2018-08-17T12:20:49.065Z,6.72
2018-08-17T12:23:16.178Z,6.33
2018-08-17T12:25:50.494Z,6.35
2018-08-17T12:28:17.622Z,6.17
2018-08-17T12:30:44.743Z,6.65
2018-08-17T12:33:12.675Z,6.40
2018-08-17T12:35:40.231Z,6.10
2018-08-17T12:38:14.592Z,5.55
2018-08-17T12:40:45.837Z,5.92
2018-08-17T12:43:14.310Z,5.85
2018-08-17T12:45:41.420Z,5.97
2018-08-17T12:48:08.534Z,5.80
2018-08-17T12:50:35.681Z,5.72
2018-08-17T12:53:02.867Z,6.15
2018-08-17T12:55:30.226Z,5.10
2018-08-17T12:57:57.481Z,5.65
2018-08-17T13:00:24.631Z,6.62
2018-08-17T13:02:51.871Z,5.50
2018-08-17T13:05:18.994Z,5.70
2018-08-17T13:07:46.122Z,5.25
2018-08-17T13:10:13.242Z,5.40
2018-08-17T13:12:40.371Z,5.58
2018-08-17T13:15:07.514Z,5.65
2018-08-17T13:17:40.602Z,6.03
2018-08-17T13:20:07.705Z,6.37
2018-08-17T13:22:34.863Z,6.75
2018-08-17T13:25:01.990Z,5.78
2018-08-17T13:27:29.170Z,5.08
2018-08-17T13:29:56.567Z,5.90
2018-08-17T13:32:23.847Z,5.30
2018-08-17T13:34:51.206Z,6.00
2018-08-17T13:37:18.371Z,5.55
2018-08-17T13:39:45.554Z,6.80
2018-08-17T13:42:12.663Z,6.00
2018-08-17T13:44:39.802Z,6.00
2018-08-17T13:47:06.989Z,7.22
2018-08-17T13:49:34.128Z,6.20
2018-08-17T13:52:01.455Z,5.67
2018-08-17T13:54:28.642Z,6.22
2018-08-17T13:56:56.002Z,6.37
2018-08-17T13:59:23.158Z,6.60
2018-08-17T14:01:50.313Z,6.10
2018-08-17T14:04:17.417Z,6.75
2018-08-17T14:06:44.518Z,6.15
2018-08-17T14:09:11.605Z,5.95
2018-08-17T14:11:38.725Z,6.05
2018-08-17T14:14:05.858Z,5.70
2018-08-17T14:16:33.005Z,6.28
2018-08-17T14:19:00.108Z,6.28
2018-08-17T14:21:27.234Z,5.85
2018-08-17T14:23:54.397Z,6.10
2018-08-17T14:26:21.547Z,5.47
2018-08-17T14:28:48.711Z,5.92
2018-08-17T14:31:15.789Z,5.60
2018-08-17T14:33:42.915Z,6.20
2018-08-17T14:36:10.090Z,5.97
2018-08-17T14:38:37.193Z,6.00
2018-08-17T14:41:04.934Z,5.83
2018-08-17T14:43:32.483Z,5.75
2018-08-17T14:45:59.622Z,5.20
2018-08-17T14:48:26.835Z,5.22
2018-08-17T14:50:54.177Z,5.22
2018-08-17T14:53:21.289Z,4.33
2018-08-17T14:55:48.552Z,4.97
2018-08-17T14:58:15.861Z,4.78
2018-08-17T15:00:43.024Z,4.40
2018-08-17T15:03:10.198Z,4.35
2018-08-17T15:05:37.650Z,4.58
2018-08-17T15:08:04.797Z,4.28
2018-08-17T15:10:31.919Z,4.28
2018-08-17T15:12:59.091Z,4.17
2018-08-17T15:15:26.219Z,5.12
2018-08-17T15:17:53.392Z,5.47
2018-08-17T15:20:20.539Z,4.50
2018-08-17T15:22:47.677Z,4.78
2018-08-17T15:25:14.821Z,5.40
2018-08-17T15:27:41.966Z,5.17
2018-08-17T15:30:10.229Z,5.90
2018-08-17T15:32:37.802Z,6.22
2018-08-17T15:35:05.367Z,6.08
2018-08-17T15:37:32.546Z,5.97
2018-08-17T15:39:59.712Z,6.65
2018-08-17T15:42:26.900Z,6.55
2018-08-17T15:44:54.165Z,7.17
2018-08-17T15:47:21.345Z,6.67
2018-08-17T15:50:05.442Z,7.17
2018-08-17T15:52:32.598Z,6.03
2018-08-17T15:54:59.715Z,6.35
2018-08-17T15:57:27.052Z,6.28
2018-08-17T15:59:54.188Z,6.37
2018-08-17T16:02:21.349Z,6.33
2018-08-17T16:04:48.529Z,6.35
2018-08-17T16:07:15.599Z,6.67
2018-08-17T16:09:42.732Z,6.65
2018-08-17T16:12:09.873Z,7.08
2018-08-17T16:14:36.988Z,6.60
2018-08-17T16:17:04.089Z,7.25
2018-08-17T16:19:31.288Z,7.72
2018-08-17T16:21:58.462Z,7.70
2018-08-17T16:24:25.681Z,7.80
2018-08-17T16:26:52.982Z,8.68
2018-08-17T16:29:20.099Z,8.60
2018-08-17T16:31:47.237Z,8.98
2018-08-17T16:34:14.424Z,8.15
2018-08-17T16:36:42.184Z,8.08
2018-08-17T16:39:12.304Z,8.53
2018-08-17T16:41:39.494Z,8.43
2018-08-17T16:44:06.642Z,9.18
2018-08-17T16:46:33.931Z,9.03
2018-08-17T16:49:01.099Z,8.55
2018-08-17T16:51:28.240Z,10.03
2018-08-17T16:53:55.465Z,9.38
2018-08-17T16:56:22.663Z,10.35
2018-08-17T16:58:50.021Z,10.48
2018-08-17T17:01:17.134Z,11.03
2018-08-17T17:03:44.290Z,10.28
2018-08-17T17:06:11.446Z,10.75
2018-08-17T17:08:38.582Z,10.23
2018-08-17T17:11:06.395Z,10.68
2018-08-17T17:13:38.301Z,9.88
2018-08-17T17:16:05.470Z,9.88
2018-08-17T17:18:32.598Z,9.45
2018-08-17T17:20:59.785Z,9.98
2018-08-17T17:23:26.979Z,9.80
2018-08-17T17:25:54.222Z,9.80
2018-08-17T17:28:21.430Z,10.23
2018-08-17T17:30:49.721Z,9.63
2018-08-17T17:33:16.884Z,9.00
2018-08-17T17:35:44.157Z,9.73
2018-08-17T17:38:11.697Z,10.20
2018-08-17T17:40:39.526Z,9.80
2018-08-17T17:43:07.052Z,10.03
2018-08-17T17:45:34.584Z,9.70
2018-08-17T17:48:02.307Z,9.57
2018-08-17T17:50:29.877Z,9.87
2018-08-17T17:52:57.337Z,9.53
2018-08-17T17:55:34.749Z,9.37
2018-08-17T17:58:01.933Z,9.87
2018-08-17T18:00:29.181Z,9.60
2018-08-17T18:02:56.503Z,9.63
2018-08-17T18:05:23.648Z,9.90
2018-08-17T18:07:50.825Z,9.50
2018-08-17T18:10:19.662Z,9.40
2018-08-17T18:12:47.018Z,9.50
2018-08-17T18:15:14.171Z,9.87
2018-08-17T18:17:41.365Z,9.10
2018-08-17T18:20:09.557Z,9.90
2018-08-17T18:22:36.713Z,10.53
2018-08-17T18:25:09.625Z,9.80
2018-08-17T18:27:36.815Z,10.37
2018-08-17T18:30:04.453Z,11.30
2018-08-17T18:32:31.546Z,10.60
2018-08-17T18:34:58.754Z,10.33
2018-08-17T18:37:25.989Z,10.60
2018-08-17T18:39:53.139Z,10.70
2018-08-17T18:42:20.278Z,9.83
2018-08-17T18:44:47.442Z,11.00
2018-08-17T18:47:14.580Z,10.57
2018-08-17T18:49:41.718Z,10.67
2018-08-17T18:52:08.925Z,10.87
2018-08-17T18:54:36.048Z,10.50
2018-08-17T18:57:03.215Z,10.17
2018-08-17T18:59:30.342Z,10.33
2018-08-17T19:01:57.485Z,10.40
2018-08-17T19:04:24.679Z,10.73
2018-08-17T19:06:51.945Z,11.13
2018-08-17T19:09:19.055Z,9.40
2018-08-17T19:11:46.199Z,11.17
2018-08-17T19:14:13.310Z,10.00
2018-08-17T19:16:40.468Z,11.60
2018-08-17T19:19:08.005Z,10.77
2018-08-17T19:21:35.117Z,11.37
2018-08-17T19:24:07.197Z,10.60
2018-08-17T19:26:34.325Z,11.33
2018-08-17T19:29:01.436Z,9.83
2018-08-17T19:31:28.580Z,10.57
2018-08-17T19:33:55.774Z,11.33
2018-08-17T19:36:23.008Z,10.67
2018-08-17T19:38:50.154Z,9.93
2018-08-17T19:41:17.269Z,11.17
2018-08-17T19:43:44.405Z,10.80
2018-08-17T19:46:11.615Z,10.23
2018-08-17T19:48:38.649Z,10.93
2018-08-17T19:51:11.578Z,10.40
2018-08-17T19:53:38.718Z,9.83
2018-08-17T19:56:05.849Z,9.00
2018-08-17T19:58:32.971Z,9.90
2018-08-17T20:01:00.100Z,9.57
2018-08-17T20:03:27.264Z,9.87
2018-08-17T20:05:54.614Z,9.50
2018-08-17T20:08:22.310Z,9.07
2018-08-17T20:10:49.521Z,8.60
2018-08-17T20:13:16.646Z,10.27
2018-08-17T20:15:43.789Z,8.63
2018-08-17T20:18:10.918Z,8.43
2018-08-17T20:20:38.287Z,8.47
2018-08-17T20:23:05.437Z,8.97
2018-08-17T20:25:32.585Z,9.13
2018-08-17T20:27:59.787Z,8.57
2018-08-17T20:30:26.945Z,7.53
2018-08-17T20:32:54.188Z,7.77
2018-08-17T20:35:21.349Z,7.13
2018-08-17T20:37:51.027Z,7.20
2018-08-17T20:40:18.378Z,7.07
2018-08-17T20:42:45.804Z,6.20
2018-08-17T20:45:12.937Z,6.60
2018-08-17T20:47:40.842Z,6.63
2018-08-17T20:50:11.193Z,6.53
2018-08-17T20:52:46.908Z,6.10
2018-08-17T20:55:14.034Z,6.27
2018-08-17T20:57:41.161Z,6.20
2018-08-17T21:00:08.289Z,6.30
2018-08-17T21:02:35.392Z,6.40
2018-08-17T21:05:02.547Z,5.93
2018-08-17T21:07:29.669Z,5.57
2018-08-17T21:09:56.961Z,5.53
2018-08-17T21:12:24.152Z,5.10
2018-08-17T21:14:51.320Z,6.13
2018-08-17T21:17:18.481Z,5.70
2018-08-17T21:19:45.594Z,6.07
2018-08-17T21:22:12.751Z,6.27
2018-08-17T21:24:39.897Z,6.60
2018-08-17T21:27:07.030Z,5.80
2018-08-17T21:29:34.187Z,5.70
2018-08-17T21:32:01.338Z,5.80
2018-08-17T21:34:28.536Z,5.10
2018-08-17T21:36:55.776Z,5.80
2018-08-17T21:39:22.958Z,6.13
2018-08-17T21:41:50.149Z,5.70
2018-08-17T21:44:18.501Z,5.60
2018-08-17T21:46:54.169Z,5.20
2018-08-17T21:49:22.440Z,5.83
2018-08-17T21:51:53.524Z,5.47
2018-08-17T21:54:20.671Z,5.20
2018-08-17T21:56:47.883Z,5.13
2018-08-17T21:59:14.985Z,5.80
2018-08-17T22:01:42.190Z,5.77
2018-08-17T22:04:09.315Z,5.57
2018-08-17T22:06:36.445Z,5.07
2018-08-17T22:09:05.705Z,6.10
2018-08-17T22:11:34.517Z,5.37
2018-08-17T22:14:01.731Z,5.60
2018-08-17T22:16:28.910Z,5.40
2018-08-17T22:18:56.164Z,5.53
2018-08-17T22:21:24.384Z,5.73
2018-08-17T22:23:51.628Z,6.50
2018-08-17T22:26:19.181Z,7.30
2018-08-17T22:28:46.310Z,7.67
2018-08-17T22:31:14.667Z,7.07
2018-08-17T22:33:41.799Z,7.73
2018-08-17T22:36:14.577Z,7.73
2018-08-17T22:38:44.705Z,7.37
2018-08-17T22:41:12.356Z,7.10
2018-08-17T22:43:39.457Z,8.07
2018-08-17T22:46:06.691Z,8.37
2018-08-17T22:48:33.939Z,7.50
2018-08-17T22:51:00.986Z,7.40
2018-08-17T22:53:28.174Z,8.17
2018-08-17T22:55:55.437Z,7.33
2018-08-17T22:58:22.620Z,7.13
2018-08-17T23:00:49.747Z,7.27
2018-08-17T23:03:16.857Z,7.17
2018-08-17T23:05:43.986Z,6.70
2018-08-17T23:08:11.167Z,6.47
2018-08-17T23:10:38.302Z,7.40
2018-08-17T23:13:05.433Z,7.33
2018-08-17T23:15:32.603Z,7.10
2018-08-17T23:18:00.557Z,6.80
2018-08-17T23:20:32.941Z,6.47
2018-08-17T23:23:00.897Z,6.97
2018-08-17T23:25:28.084Z,6.77
2018-08-17T23:27:55.267Z,6.00
2018-08-17T23:30:22.532Z,7.37
2018-08-17T23:32:49.704Z,7.83
2018-08-17T23:35:16.873Z,6.53
2018-08-17T23:37:44.058Z,7.43
2018-08-17T23:40:11.218Z,7.17
2018-08-17T23:42:38.433Z,7.70
2018-08-17T23:45:07.161Z,7.13
2018-08-17T23:47:34.583Z,7.57
2018-08-17T23:50:01.788Z,8.10
2018-08-17T23:52:28.966Z,7.77
2018-08-17T23:54:56.160Z,7.90
2018-08-17T23:57:24.241Z,8.63
2018-08-17T23:59:51.402Z,8.30
